Time;durP1;ratioP1;P1;durP2;ratioP2;P2;SDS_P1;SDS_P2;PMS_P1;PMS_P2;Temp;Humidity;BMP_temperature;BMP_pressure;BME280_temperature;BME280_humidity;BME280_pressure;Samples;Min_cycle;Max_cycle;Signal;HPM_P1;HPM_P2
2023/10/14 00:01:03;;;;;;;23.20;10.00;;;;;;;;;;5012161;28;20646;-72
2023/10/14 00:03:33;;;;;;;17.73;9.23;;;;;;;;;;5013546;28;20195;-73
2023/10/14 00:06:18;;;;;;;14.57;9.37;;;;;;;;;;5013293;28;20249;-72
2023/10/14 00:08:48;;;;;;;17.33;10.60;;;;;;;;;;5013591;28;20182;-72
2023/10/14 00:11:17;;;;;;;17.07;9.73;;;;;;;;;;5013856;28;20195;-72
2023/10/14 00:13:48;;;;;;;17.77;9.90;;;;;;;;;;5013505;28;20250;-72
2023/10/14 00:16:29;;;;;;;15.20;10.10;;;;;;;;;;5013553;28;20505;-72
2023/10/14 00:18:55;;;;;;;22.50;11.07;;;;;;;;;;5011934;28;20203;-72
2023/10/14 00:21:27;;;;;;;17.33;9.63;;;;;;;;;;5013091;28;20662;-72
2023/10/14 00:23:57;;;;;;;20.90;10.97;;;;;;;;;;5012125;28;20258;-72
2023/10/14 00:26:24;;;;;;;26.63;10.80;;;;;;;;;;5013269;28;20581;-72
2023/10/14 00:28:54;;;;;;;15.40;10.50;;;;;;;;;;5013064;28;20668;-72
2023/10/14 00:31:21;;;;;;;12.07;9.10;;;;;;;;;;5013239;28;20172;-72
2023/10/14 00:33:47;;;;;;;16.47;9.07;;;;;;;;;;5012903;28;20241;-71
2023/10/14 00:36:16;;;;;;;14.87;9.93;;;;;;;;;;5011852;28;20218;-72
2023/10/14 00:38:45;;;;;;;18.20;9.07;;;;;;;;;;5013322;28;20176;-72
2023/10/14 00:41:12;;;;;;;13.33;8.27;;;;;;;;;;5017086;28;20259;-72
2023/10/14 00:43:42;;;;;;;17.13;9.17;;;;;;;;;;5016925;28;20704;-72
2023/10/14 00:46:13;;;;;;;9.97;7.57;;;;;;;;;;5016614;28;20286;-71
2023/10/14 00:48:40;;;;;;;14.33;7.33;;;;;;;;;;5016706;28;20172;-72
2023/10/14 00:51:10;;;;;;;14.50;7.90;;;;;;;;;;5016946;28;20176;-72
2023/10/14 00:53:38;;;;;;;11.20;6.90;;;;;;;;;;5016711;28;20627;-72
2023/10/14 00:56:04;;;;;;;12.77;7.33;;;;;;;;;;5017143;28;20654;-71
2023/10/14 00:58:30;;;;;;;15.60;7.07;;;;;;;;;;5016465;28;20183;-73
2023/10/14 01:00:59;;;;;;;2.90;2.30;;;;;;;;;;5016843;28;20184;-70
2023/10/14 01:03:32;;;;;;;4.53;1.93;;;;;;;;;;5016565;28;20291;-71
2023/10/14 01:08:44;;;;;;;8.07;1.63;;;;;;;;;;5017234;28;20211;-70
2023/10/14 01:11:10;;;;;;;2.87;1.40;;;;;;;;;;5016425;28;20258;-71
2023/10/14 01:13:36;;;;;;;4.67;2.00;;;;;;;;;;5016608;28;20192;-71
2023/10/14 01:16:08;;;;;;;2.63;1.43;;;;;;;;;;5016541;28;20188;-73
2023/10/14 01:18:35;;;;;;;4.27;1.60;;;;;;;;;;5016160;28;20183;-71
2023/10/14 01:21:00;;;;;;;2.27;1.43;;;;;;;;;;5014890;28;20238;-71
2023/10/14 01:23:27;;;;;;;2.40;1.43;;;;;;;;;;5016434;28;20199;-71
2023/10/14 01:25:53;;;;;;;3.23;1.10;;;;;;;;;;5022300;28;20229;-72
2023/10/14 01:28:23;;;;;;;4.50;1.40;;;;;;;;;;5024362;28;20706;-71
2023/10/14 01:31:07;;;;;;;1.80;1.03;;;;;;;;;;5018831;28;20187;-71
2023/10/14 01:33:36;;;;;;;2.33;1.17;;;;;;;;;;5016414;28;20200;-70
2023/10/14 01:36:02;;;;;;;1.97;1.20;;;;;;;;;;5016614;28;20335;-71
2023/10/14 01:38:30;;;;;;;2.40;1.60;;;;;;;;;;5015080;28;20537;-71
2023/10/14 01:40:56;;;;;;;1.97;1.47;;;;;;;;;;5016044;28;20646;-72
2023/10/14 01:43:24;;;;;;;2.37;1.50;;;;;;;;;;5015955;28;20685;-70
2023/10/14 01:48:25;;;;;;;1.90;1.30;;;;;;;;;;5015862;28;20191;-71
2023/10/14 01:50:55;;;;;;;2.83;1.33;;;;;;;;;;5014755;28;20265;-71
2023/10/14 01:53:23;;;;;;;1.73;1.50;;;;;;;;;;5014332;28;20302;-71
2023/10/14 01:55:50;;;;;;;;;;;;;;;;;;5014677;28;20650;-71
2023/10/14 01:58:22;;;;;;;;;;;;;;;;;;5016170;28;19930;-72
2023/10/14 02:00:52;;;;;;;;;;;;;;;;;;5016270;28;20371;-73
2023/10/14 02:03:18;;;;;;;;;;;;;;;;;;5016071;28;19957;-72
2023/10/14 02:05:44;;;;;;;3.43;1.53;;;;;;;;;;5015412;28;19945;-72
2023/10/14 02:08:16;;;;;;;1.87;1.40;;;;;;;;;;5014080;28;20176;-72
2023/10/14 02:10:53;;;;;;;3.97;1.50;;;;;;;;;;5015279;28;20167;-73
2023/10/14 02:13:21;;;;;;;2.43;1.47;;;;;;;;;;5015260;28;20661;-72
2023/10/14 02:15:47;;;;;;;5.13;1.73;;;;;;;;;;5015491;28;20247;-72
2023/10/14 02:18:20;;;;;;;5.10;1.90;;;;;;;;;;5015337;28;20180;-72
2023/10/14 02:20:56;;;;;;;5.77;2.00;;;;;;;;;;5013921;28;20179;-72
2023/10/14 02:23:24;;;;;;;4.17;1.90;;;;;;;;;;5015283;28;20290;-72
2023/10/14 02:25:55;;;;;;;3.83;1.97;;;;;;;;;;5013828;28;20208;-73
2023/10/14 02:28:21;;;;;;;;;;;;;;;;;;5015121;28;20614;-72
2023/10/14 02:30:51;;;;;;;;;;;;;;;;;;5015290;28;19952;-75
2023/10/14 02:33:17;;;;;;;;;;;;;;;;;;5014084;28;19949;-73
2023/10/14 02:35:43;;;;;;;4.70;1.77;;;;;;;;;;5015248;28;20018;-73
2023/10/14 02:38:09;;;;;;;3.97;2.07;;;;;;;;;;5015089;28;20318;-73
2023/10/14 02:40:37;;;;;;;4.97;2.47;;;;;;;;;;5015068;28;20183;-73
2023/10/14 02:43:04;;;;;;;4.97;2.40;;;;;;;;;;5015110;28;20188;-73
2023/10/14 02:45:33;;;;;;;6.40;3.03;;;;;;;;;;5014742;28;20191;-72
2023/10/14 02:48:02;;;;;;;8.83;2.70;;;;;;;;;;5014817;28;20164;-72
2023/10/14 02:50:28;;;;;;;5.70;2.60;;;;;;;;;;5014845;28;20183;-73
2023/10/14 02:53:01;;;;;;;8.13;2.40;;;;;;;;;;5014911;28;20199;-72
2023/10/14 02:55:50;;;;;;;12.63;2.60;;;;;;;;;;5014109;28;20168;-72
2023/10/14 02:58:13;;;;;;;6.30;2.67;;;;;;;;;;5015787;28;20190;-72
2023/10/14 03:00:41;;;;;;;11.10;2.80;;;;;;;;;;5015366;28;20299;-72
2023/10/14 03:03:12;;;;;;;16.17;3.50;;;;;;;;;;5014259;28;20204;-72
2023/10/14 03:05:51;;;;;;;10.43;2.77;;;;;;;;;;5013183;28;20207;-72
2023/10/14 03:08:17;;;;;;;9.93;3.00;;;;;;;;;;5014460;28;20180;-73
2023/10/14 03:10:45;;;;;;;10.00;3.33;;;;;;;;;;5013472;28;20267;-74
2023/10/14 03:13:14;;;;;;;9.87;2.97;;;;;;;;;;5014710;28;20226;-73
2023/10/14 03:15:44;;;;;;;15.47;2.97;;;;;;;;;;5013066;28;20566;-73
2023/10/14 03:18:13;;;;;;;13.85;3.17;;;;;;;;;;5013551;28;20960;-73
2023/10/14 03:20:44;;;;;;;17.90;4.05;;;;;;;;;;5012121;28;20393;-74
2023/10/14 03:25:43;;;;;;;17.83;3.70;;;;;;;;;;5013536;28;20416;-73
2023/10/14 03:28:14;;;;;;;12.07;3.30;;;;;;;;;;5014465;28;20168;-74
2023/10/14 03:30:46;;;;;;;18.73;3.23;;;;;;;;;;5013253;28;20250;-73
2023/10/14 03:33:20;;;;;;;12.83;3.33;;;;;;;;;;5013212;28;20195;-74
2023/10/14 03:35:54;;;;;;;18.03;3.60;;;;;;;;;;5014890;28;20164;-74
2023/10/14 03:41:21;;;;;;;11.27;4.07;;;;;;;;;;5015295;28;20156;-75
2023/10/14 03:43:59;;;;;;;24.07;3.83;;;;;;;;;;5015720;28;20206;-74
2023/10/14 03:46:42;;;;;;;11.87;4.23;;;;;;;;;;5014938;28;20256;-73
2023/10/14 03:49:23;;;;;;;14.00;3.27;;;;;;;;;;5015169;28;20164;-76
2023/10/14 03:51:51;;;;;;;18.50;3.90;;;;;;;;;;5014081;28;20164;-74
2023/10/14 03:54:23;;;;;;;19.93;4.00;;;;;;;;;;5013095;28;20566;-75
2023/10/14 03:56:50;;;;;;;20.63;3.97;;;;;;;;;;5015070;28;20152;-76
2023/10/14 03:59:26;;;;;;;23.67;4.37;;;;;;;;;;5014601;28;20167;-76
2023/10/14 04:02:07;;;;;;;15.47;3.23;;;;;;;;;;5013929;28;20637;-75
2023/10/14 04:04:33;;;;;;;21.17;3.67;;;;;;;;;;5015547;28;20262;-75
2023/10/14 04:09:36;;;;;;;9.47;3.33;;;;;;;;;;5017757;28;20564;-75
2023/10/14 04:12:07;;;;;;;14.60;3.50;;;;;;;;;;5013543;28;20168;-75
2023/10/14 04:14:35;;;;;;;21.40;4.27;;;;;;;;;;5018276;28;20152;-75
2023/10/14 04:17:19;;;;;;;19.80;3.97;;;;;;;;;;5019000;28;20270;-75
2023/10/14 04:20:22;;;;;;;10.67;3.33;;;;;;;;;;5019161;28;20168;-73
2023/10/14 04:22:42;;;;;;;15.50;3.97;;;;;;;;;;5020107;28;20206;-74
2023/10/14 04:25:38;;;;;;;10.60;4.00;;;;;;;;;;5020341;28;20290;-74
2023/10/14 04:30:44;;;;;;;20.73;4.10;;;;;;;;;;5021405;28;20257;-74
2023/10/14 04:33:19;;;;;;;17.03;4.03;;;;;;;;;;5020411;28;20200;-74
2023/10/14 04:38:38;;;;;;;14.33;3.73;;;;;;;;;;5020430;28;20736;-74
2023/10/14 04:41:04;;;;;;;13.83;3.60;;;;;;;;;;5020361;28;20539;-74
2023/10/14 04:46:22;;;;;;;9.23;2.77;;;;;;;;;;5043216;23;20235;-68
2023/10/14 04:48:59;;;;;;;18.73;3.83;;;;;;;;;;5018413;28;20192;-68
2023/10/14 04:51:36;;;;;;;14.73;3.87;;;;;;;;;;5019631;28;20156;-68
2023/10/14 04:54:02;;;;;;;24.20;3.83;;;;;;;;;;5019103;28;20155;-65
2023/10/14 04:56:31;;;;;;;15.10;3.50;;;;;;;;;;5019099;28;20211;-66
2023/10/14 04:58:58;;;;;;;20.27;4.20;;;;;;;;;;5019023;28;20216;-67
2023/10/14 05:01:27;;;;;;;14.37;3.23;;;;;;;;;;5018987;28;20658;-67
2023/10/14 05:03:57;;;;;;;14.57;3.57;;;;;;;;;;5000965;28;20213;-67
2023/10/14 05:06:29;;;;;;;15.80;3.80;;;;;;;;;;5018981;28;20208;-65
2023/10/14 05:08:55;;;;;;;13.60;3.63;;;;;;;;;;5019359;28;20618;-66
2023/10/14 05:11:25;;;;;;;23.50;4.03;;;;;;;;;;5018960;28;20198;-67
2023/10/14 05:14:14;;;;;;;10.93;3.63;;;;;;;;;;5019120;28;20186;-67
2023/10/14 05:16:53;;;;;;;17.53;4.20;;;;;;;;;;5018598;28;20203;-67
2023/10/14 05:19:30;;;;;;;21.40;4.23;;;;;;;;;;5018879;28;20246;-67
2023/10/14 05:21:58;;;;;;;20.57;4.37;;;;;;;;;;5001597;28;20179;-67
2023/10/14 05:24:28;;;;;;;16.00;3.77;;;;;;;;;;5018966;28;20201;-66
2023/10/14 05:27:01;;;;;;;17.93;3.70;;;;;;;;;;4997921;28;20219;-67
2023/10/14 05:29:28;;;;;;;17.37;3.40;;;;;;;;;;5016016;28;20175;-67
2023/10/14 05:32:04;;;;;;;19.57;4.43;;;;;;;;;;5015456;28;20186;-66
2023/10/14 05:34:32;;;;;;;19.53;3.87;;;;;;;;;;4998633;28;20638;-66
2023/10/14 05:36:58;;;;;;;16.37;3.87;;;;;;;;;;4997747;28;20585;-66
2023/10/14 05:39:25;;;;;;;17.27;4.07;;;;;;;;;;4997834;28;20183;-66
2023/10/14 05:41:58;;;;;;;13.37;3.13;;;;;;;;;;4997774;28;20187;-66
2023/10/14 05:44:27;;;;;;;12.83;3.73;;;;;;;;;;5015333;28;20156;-67
2023/10/14 05:46:53;;;;;;;17.37;4.07;;;;;;;;;;5014787;28;20302;-67
2023/10/14 05:49:24;;;;;;;19.80;3.67;;;;;;;;;;4997409;28;20271;-67
2023/10/14 05:51:50;;;;;;;16.83;3.73;;;;;;;;;;5015782;28;20171;-67
2023/10/14 05:54:16;;;;;;;29.77;3.80;;;;;;;;;;5014992;28;20212;-67
2023/10/14 05:56:43;;;;;;;15.30;4.27;;;;;;;;;;5015061;28;20665;-67
2023/10/14 05:59:10;;;;;;;23.50;4.20;;;;;;;;;;5014901;28;20176;-67
2023/10/14 06:01:36;;;;;;;15.30;3.33;;;;;;;;;;4997341;28;20187;-67
2023/10/14 06:04:03;;;;;;;15.70;4.00;;;;;;;;;;4997317;28;20242;-67
2023/10/14 06:06:31;;;;;;;17.80;4.27;;;;;;;;;;4997657;28;20277;-67
2023/10/14 06:09:00;;;;;;;18.87;3.90;;;;;;;;;;5014902;28;20176;-67
2023/10/14 06:11:26;;;;;;;21.63;4.20;;;;;;;;;;5014711;28;20172;-67
2023/10/14 06:13:52;;;;;;;10.03;2.80;;;;;;;;;;4997101;28;20183;-67
2023/10/14 06:16:18;;;;;;;16.60;4.37;;;;;;;;;;5014797;28;20200;-65
2023/10/14 06:18:47;;;;;;;22.17;3.60;;;;;;;;;;5014426;28;20180;-67
2023/10/14 06:21:15;;;;;;;20.23;3.80;;;;;;;;;;4997026;28;20210;-67
2023/10/14 06:23:47;;;;;;;17.67;3.87;;;;;;;;;;4996912;28;20184;-67
2023/10/14 06:26:16;;;;;;;19.20;3.63;;;;;;;;;;4996806;28;20219;-67
2023/10/14 06:28:42;;;;;;;17.50;3.87;;;;;;;;;;5014270;28;20173;-67
2023/10/14 06:31:08;;;;;;;10.73;3.23;;;;;;;;;;5014613;28;20183;-66
2023/10/14 06:33:34;;;;;;;22.20;3.80;;;;;;;;;;4996699;28;20259;-67
2023/10/14 06:36:04;;;;;;;18.37;3.90;;;;;;;;;;5014391;28;20249;-68
2023/10/14 06:38:30;;;;;;;17.83;3.50;;;;;;;;;;5014719;28;20179;-68
2023/10/14 06:41:01;;;;;;;16.00;3.73;;;;;;;;;;4997268;28;20180;-68
2023/10/14 06:43:27;;;;;;;18.47;4.20;;;;;;;;;;4997812;28;20192;-67
2023/10/14 06:45:54;;;;;;;14.67;4.07;;;;;;;;;;5014743;28;20203;-68
2023/10/14 06:48:20;;;;;;;;;;;;;;;;;;4998490;28;20191;-68
2023/10/14 06:50:47;;;;;;;;;;;;;;;;;;5015456;28;19941;-68
2023/10/14 06:53:14;;;;;;;;;;;;;;;;;;5015505;28;20375;-69
2023/10/14 06:55:40;;;;;;;;;;;;;;;;;;5015100;28;20417;-68
2023/10/14 06:58:07;;;;;;;;;;;;;;;;;;5014943;28;19934;-68
2023/10/14 07:00:32;;;;;;;;;;;;;;;;;;4998149;28;19942;-68
2023/10/14 07:03:01;;;;;;;;;;;;;;;;;;4997364;28;20037;-68
2023/10/14 07:05:28;;;;;;;;;;;;;;;;;;5014765;28;19954;-68
2023/10/14 07:07:55;;;;;;;;;;;;;;;;;;5014472;28;19942;-66
2023/10/14 07:10:27;;;;;;;12.07;3.20;;;;;;;;;;5014191;28;19996;-66
2023/10/14 07:12:53;;;;;;;15.50;3.37;;;;;;;;;;4996403;28;20641;-67
2023/10/14 07:15:19;;;;;;;15.10;3.60;;;;;;;;;;5013886;28;20230;-66
2023/10/14 07:17:48;;;;;;;17.30;3.70;;;;;;;;;;4996381;28;20635;-68
2023/10/14 07:20:14;;;;;;;15.90;3.93;;;;;;;;;;4996191;28;20175;-67
2023/10/14 07:22:43;;;;;;;21.37;4.03;;;;;;;;;;5014078;28;20182;-67
2023/10/14 07:25:10;;;;;;;15.80;3.50;;;;;;;;;;5013645;28;20207;-67
2023/10/14 07:27:36;;;;;;;13.53;3.73;;;;;;;;;;4996093;28;20226;-67
2023/10/14 07:30:13;;;;;;;19.47;4.17;;;;;;;;;;4995687;28;20730;-67
2023/10/14 07:32:39;;;;;;;19.17;3.97;;;;;;;;;;5014156;28;20293;-67
2023/10/14 07:35:06;;;;;;;15.17;2.90;;;;;;;;;;4996137;28;20183;-67
2023/10/14 07:37:33;;;;;;;15.20;4.33;;;;;;;;;;4996041;28;20590;-67
2023/10/14 07:40:04;;;;;;;15.83;3.53;;;;;;;;;;4996245;28;20279;-67
2023/10/14 07:42:30;;;;;;;19.87;3.10;;;;;;;;;;4996261;28;20206;-67
2023/10/14 07:44:56;;;;;;;15.93;3.60;;;;;;;;;;4996206;28;20243;-67
2023/10/14 07:47:24;;;;;;;20.73;3.83;;;;;;;;;;5013085;28;20207;-67
2023/10/14 07:49:50;;;;;;;11.23;3.37;;;;;;;;;;5014001;28;20206;-67
2023/10/14 07:52:16;;;;;;;17.70;3.63;;;;;;;;;;5013460;28;20697;-67
2023/10/14 07:54:42;;;;;;;23.60;4.00;;;;;;;;;;5013320;28;20254;-67
2023/10/14 07:57:12;;;;;;;16.20;3.63;;;;;;;;;;5013478;28;20273;-66
2023/10/14 07:59:38;;;;;;;13.67;3.67;;;;;;;;;;5013504;28;20214;-69
2023/10/14 08:02:07;;;;;;;16.37;3.60;;;;;;;;;;5013540;28;20206;-67
2023/10/14 08:04:33;;;;;;;20.17;4.77;;;;;;;;;;5013136;28;20168;-66
2023/10/14 08:07:00;;;;;;;16.47;3.40;;;;;;;;;;4995690;28;20318;-67
2023/10/14 08:09:28;;;;;;;15.40;4.03;;;;;;;;;;5012806;28;20207;-67
2023/10/14 08:11:54;;;;;;;18.57;3.70;;;;;;;;;;4995635;28;20188;-67
2023/10/14 08:14:20;;;;;;;13.17;3.93;;;;;;;;;;4997011;28;20219;-67
2023/10/14 08:16:47;;;;;;;16.20;4.13;;;;;;;;;;4995123;28;20208;-66
2023/10/14 08:19:14;;;;;;;11.83;3.80;;;;;;;;;;5012974;28;20233;-67
2023/10/14 08:21:40;;;;;;;15.13;3.53;;;;;;;;;;5013142;28;20172;-67
2023/10/14 08:24:06;;;;;;;19.27;4.40;;;;;;;;;;5012896;28;20176;-66
2023/10/14 08:26:34;;;;;;;15.83;3.83;;;;;;;;;;4995123;28;20222;-67
2023/10/14 08:29:00;;;;;;;13.63;4.20;;;;;;;;;;4995092;28;20184;-67
2023/10/14 08:31:26;;;;;;;14.40;3.53;;;;;;;;;;5012873;28;20184;-67
2023/10/14 08:33:52;;;;;;;19.17;3.60;;;;;;;;;;4995436;28;20176;-66
2023/10/14 08:36:18;;;;;;;12.90;3.77;;;;;;;;;;5012890;28;20199;-66
2023/10/14 08:38:45;;;;;;;15.87;3.33;;;;;;;;;;4995337;28;20183;-66
2023/10/14 08:41:15;;;;;;;12.63;3.00;;;;;;;;;;4995125;28;20187;-67
2023/10/14 08:43:49;;;;;;;20.10;4.47;;;;;;;;;;5012876;28;20669;-67
2023/10/14 08:46:17;;;;;;;14.97;2.90;;;;;;;;;;5012652;28;20306;-68
2023/10/14 08:48:44;;;;;;;15.07;3.92;;;;;;;;;;5012028;28;20805;-67
2023/10/14 08:51:11;;;;;;;15.27;4.10;;;;;;;;;;4995899;28;20176;-67
2023/10/14 08:53:40;;;;;;;17.27;3.93;;;;;;;;;;4997265;28;20522;-68
2023/10/14 08:56:07;;;;;;;21.00;3.50;;;;;;;;;;4995481;28;20290;-67
2023/10/14 08:58:36;;;;;;;13.20;3.23;;;;;;;;;;4995559;28;20180;-68
2023/10/14 09:01:06;;;;;;;12.87;3.13;;;;;;;;;;5015543;28;20168;-68
2023/10/14 09:03:32;;;;;;;14.47;2.97;;;;;;;;;;5016412;28;20167;-67
2023/10/14 09:05:58;;;;;;;13.00;3.40;;;;;;;;;;4998483;28;20666;-67
2023/10/14 09:08:31;;;;;;;12.30;3.67;;;;;;;;;;5016248;28;20295;-67
2023/10/14 09:10:57;;;;;;;18.10;3.43;;;;;;;;;;5016312;28;20243;-67
2023/10/14 09:13:23;;;;;;;15.27;3.73;;;;;;;;;;4998668;28;20618;-67
2023/10/14 09:15:50;;;;;;;13.30;4.40;;;;;;;;;;5017221;28;20620;-67
2023/10/14 09:18:17;;;;;;;11.77;3.40;;;;;;;;;;5016915;28;20202;-68
2023/10/14 09:20:43;;;;;;;14.30;3.53;;;;;;;;;;4998550;28;20184;-67
2023/10/14 09:23:19;;;;;;;15.80;3.53;;;;;;;;;;5016582;28;20613;-67
2023/10/14 09:25:50;;;;;;;16.80;3.37;;;;;;;;;;5019878;28;20253;-68
2023/10/14 09:28:19;;;;;;;16.77;3.97;;;;;;;;;;5003998;28;20184;-68
2023/10/14 09:30:45;;;;;;;12.77;3.37;;;;;;;;;;5002012;28;20387;-66
2023/10/14 09:33:15;;;;;;;12.87;3.47;;;;;;;;;;5019390;28;20238;-67
2023/10/14 09:35:41;;;;;;;14.93;3.17;;;;;;;;;;5018561;28;20215;-67
2023/10/14 09:38:08;;;;;;;13.47;3.77;;;;;;;;;;5018964;28;20617;-67
2023/10/14 09:40:35;;;;;;;11.67;2.83;;;;;;;;;;5018760;28;20180;-67
2023/10/14 09:43:02;;;;;;;16.07;3.90;;;;;;;;;;5018855;28;20184;-67
2023/10/14 09:45:29;;;;;;;11.70;3.47;;;;;;;;;;5016471;28;20580;-67
2023/10/14 09:47:57;;;;;;;14.33;3.53;;;;;;;;;;5016567;28;20168;-68
2023/10/14 09:50:24;;;;;;;14.17;3.57;;;;;;;;;;5016198;28;20712;-67
2023/10/14 09:52:52;;;;;;;18.13;3.53;;;;;;;;;;5015867;28;20176;-66
2023/10/14 09:55:20;;;;;;;9.53;3.60;;;;;;;;;;5015590;28;20171;-66
2023/10/14 09:57:47;;;;;;;13.33;3.20;;;;;;;;;;5016266;28;20176;-66
2023/10/14 10:00:17;;;;;;;11.93;2.90;;;;;;;;;;5015718;28;20191;-67
2023/10/14 10:02:45;;;;;;;13.40;3.77;;;;;;;;;;5016032;28;20180;-66
2023/10/14 10:05:17;;;;;;;11.33;3.03;;;;;;;;;;5015929;28;20689;-66
2023/10/14 10:08:07;;;;;;;14.63;3.47;;;;;;;;;;5017049;28;20183;-67
2023/10/14 10:10:33;;;;;;;17.70;3.50;;;;;;;;;;4991551;28;20594;-67
2023/10/14 10:13:00;;;;;;;8.87;2.80;;;;;;;;;;4998198;28;20542;-67
2023/10/14 10:15:26;;;;;;;10.30;2.90;;;;;;;;;;5000311;28;20660;-67
2023/10/14 10:17:57;;;;;;;13.47;3.50;;;;;;;;;;5020482;28;20215;-66
2023/10/14 10:20:30;;;;;;;12.23;2.63;;;;;;;;;;5024533;28;20199;-66
2023/10/14 10:22:56;;;;;;;14.53;3.33;;;;;;;;;;5006486;28;20557;-67
2023/10/14 10:25:37;;;;;;;14.60;3.20;;;;;;;;;;5020036;28;20204;-67
2023/10/14 10:28:25;;;;;;;12.63;3.20;;;;;;;;;;5015923;28;20187;-67
2023/10/14 10:30:52;;;;;;;13.37;3.07;;;;;;;;;;4997143;28;20180;-67
2023/10/14 10:33:18;;;;;;;14.90;3.13;;;;;;;;;;4997167;28;20188;-66
2023/10/14 10:35:57;;;;;;;13.33;3.17;;;;;;;;;;4997566;28;20258;-67
2023/10/14 10:38:23;;;;;;;17.13;3.63;;;;;;;;;;5014904;28;20184;-66
2023/10/14 10:41:08;;;;;;;17.73;4.60;;;;;;;;;;5015128;28;20176;-67
2023/10/14 10:43:37;;;;;;;11.60;3.00;;;;;;;;;;5014406;28;20254;-64
2023/10/14 10:46:04;;;;;;;18.57;3.23;;;;;;;;;;4996252;28;20223;-67
2023/10/14 10:48:39;;;;;;;10.70;3.23;;;;;;;;;;5014964;28;20176;-66
2023/10/14 10:51:05;;;;;;;13.20;3.67;;;;;;;;;;5014301;28;20221;-66
2023/10/14 10:53:33;;;;;;;8.40;2.70;;;;;;;;;;5014608;28;20179;-67
2023/10/14 10:56:00;;;;;;;8.83;2.67;;;;;;;;;;5014142;28;20192;-67
2023/10/14 11:00:56;;;;;;;9.53;2.60;;;;;;;;;;4993954;28;20351;-73
2023/10/14 11:03:23;;;;;;;12.20;3.30;;;;;;;;;;4995334;28;20180;-72
2023/10/14 11:05:49;;;;;;;13.50;2.87;;;;;;;;;;4978531;28;20212;-72
2023/10/14 11:08:18;;;;;;;16.43;3.20;;;;;;;;;;4977435;28;20323;-72
2023/10/14 11:10:44;;;;;;;8.43;2.87;;;;;;;;;;4977516;28;20258;-73
2023/10/14 11:13:12;;;;;;;14.53;3.40;;;;;;;;;;4994469;28;20180;-73
2023/10/14 11:15:39;;;;;;;10.07;2.90;;;;;;;;;;4994775;28;20266;-73
2023/10/14 11:18:05;;;;;;;14.20;3.33;;;;;;;;;;4994742;28;20187;-73
2023/10/14 11:20:36;;;;;;;17.73;3.03;;;;;;;;;;4977225;28;20205;-73
2023/10/14 11:23:09;;;;;;;8.03;3.10;;;;;;;;;;4994188;28;20181;-72
2023/10/14 11:25:41;;;;;;;10.90;2.90;;;;;;;;;;4994297;28;20276;-73
2023/10/14 11:28:11;;;;;;;11.70;3.00;;;;;;;;;;4976929;28;20180;-73
2023/10/14 11:30:44;;;;;;;13.40;3.00;;;;;;;;;;4994464;28;20216;-73
2023/10/14 11:33:11;;;;;;;13.50;2.83;;;;;;;;;;4977370;28;20259;-72
2023/10/14 11:35:37;;;;;;;5.17;2.20;;;;;;;;;;4976877;28;20203;-73
2023/10/14 11:38:07;;;;;;;5.07;2.40;;;;;;;;;;4994336;28;20552;-73
2023/10/14 11:40:34;;;;;;;7.53;2.30;;;;;;;;;;4976701;28;20629;-73
2023/10/14 11:43:00;;;;;;;11.60;3.07;;;;;;;;;;4994507;28;20216;-73
2023/10/14 11:45:26;;;;;;;8.40;3.00;;;;;;;;;;4994067;28;20664;-73
2023/10/14 11:47:52;;;;;;;10.30;2.33;;;;;;;;;;4976733;28;20550;-73
2023/10/14 11:50:18;;;;;;;9.97;2.50;;;;;;;;;;4976528;28;20625;-73
2023/10/14 11:52:56;;;;;;;8.17;2.40;;;;;;;;;;4993982;28;20180;-73
2023/10/14 11:55:25;;;;;;;10.00;2.63;;;;;;;;;;4976502;28;20601;-73
2023/10/14 11:57:53;;;;;;;8.27;2.37;;;;;;;;;;4976285;28;20184;-73
2023/10/14 12:00:20;;;;;;;10.70;3.00;;;;;;;;;;4993852;28;20208;-73
2023/10/14 12:02:49;;;;;;;10.97;3.13;;;;;;;;;;4993821;28;20184;-73
2023/10/14 12:05:19;;;;;;;10.13;2.77;;;;;;;;;;4993971;28;20204;-72
2023/10/14 12:07:47;;;;;;;10.20;2.63;;;;;;;;;;4994270;28;20184;-73
2023/10/14 12:10:13;;;;;;;9.00;2.80;;;;;;;;;;4976276;28;20211;-73
2023/10/14 12:12:39;;;;;;;8.57;2.50;;;;;;;;;;4975868;28;20271;-74
2023/10/14 12:15:09;;;;;;;10.53;2.73;;;;;;;;;;4975986;28;20184;-73
2023/10/14 12:17:36;;;;;;;8.27;2.50;;;;;;;;;;4975833;28;20541;-73
2023/10/14 12:20:10;;;;;;;10.97;2.87;;;;;;;;;;4993470;28;20200;-73
2023/10/14 12:22:37;;;;;;;11.93;3.20;;;;;;;;;;4993481;28;20175;-73
2023/10/14 12:25:03;;;;;;;14.10;2.83;;;;;;;;;;4993484;28;20183;-74
2023/10/14 12:27:29;;;;;;;9.97;2.57;;;;;;;;;;4993689;28;20658;-74
2023/10/14 12:30:00;;;;;;;12.87;3.40;;;;;;;;;;4993509;28;20752;-74
2023/10/14 12:32:26;;;;;;;6.73;2.83;;;;;;;;;;4993488;28;20164;-74
2023/10/14 12:34:52;;;;;;;10.73;2.50;;;;;;;;;;4994357;28;20185;-75
2023/10/14 12:37:19;;;;;;;7.33;2.70;;;;;;;;;;4997371;28;20184;-73
2023/10/14 12:40:11;;;;;;;7.63;2.93;;;;;;;;;;4997694;28;20200;-73
2023/10/14 12:42:49;;;;;;;7.83;2.17;;;;;;;;;;4997724;28;20161;-71
2023/10/14 12:45:23;;;;;;;7.13;2.23;;;;;;;;;;4979910;28;20243;-71
2023/10/14 12:47:49;;;;;;;10.53;3.23;;;;;;;;;;4997604;28;20161;-72
2023/10/14 12:50:19;;;;;;;9.13;2.53;;;;;;;;;;4979822;28;20558;-71
2023/10/14 12:52:49;;;;;;;8.57;2.33;;;;;;;;;;4997770;28;20157;-72
2023/10/14 12:55:22;;;;;;;9.77;2.70;;;;;;;;;;4979654;28;20195;-71
2023/10/14 12:57:49;;;;;;;10.77;2.43;;;;;;;;;;4997471;28;20161;-71
2023/10/14 13:00:30;;;;;;;9.57;2.67;;;;;;;;;;4979232;28;20220;-71
2023/10/14 13:02:57;;;;;;;8.37;2.63;;;;;;;;;;4997090;28;20157;-71
2023/10/14 13:05:25;;;;;;;6.30;2.07;;;;;;;;;;4997069;28;20212;-71
2023/10/14 13:07:52;;;;;;;9.90;2.67;;;;;;;;;;4996876;28;20179;-71
2023/10/14 13:10:18;;;;;;;7.57;2.63;;;;;;;;;;4997405;28;20192;-71
2023/10/14 13:12:51;;;;;;;11.80;2.97;;;;;;;;;;4996743;28;20172;-71
2023/10/14 13:15:30;;;;;;;8.70;2.90;;;;;;;;;;4996959;28;20690;-71
2023/10/14 13:17:57;;;;;;;12.93;2.97;;;;;;;;;;4979498;28;20187;-71
2023/10/14 13:20:33;;;;;;;9.13;2.63;;;;;;;;;;4979216;28;20591;-71
2023/10/14 13:23:03;;;;;;;7.43;2.70;;;;;;;;;;4996644;28;20259;-71
2023/10/14 13:25:30;;;;;;;8.23;4.27;;;;;;;;;;4996749;28;20559;-71
2023/10/14 13:27:56;;;;;;;15.97;6.73;;;;;;;;;;4997400;28;20200;-72
2023/10/14 13:30:22;;;;;;;23.40;13.47;;;;;;;;;;4979132;28;20208;-70
2023/10/14 13:32:55;;;;;;;14.03;4.80;;;;;;;;;;4979211;28;20596;-72
2023/10/14 13:35:21;;;;;;;8.63;4.30;;;;;;;;;;4978984;28;20271;-71
2023/10/14 13:37:47;;;;;;;12.23;5.57;;;;;;;;;;4978630;28;20243;-72
2023/10/14 13:40:20;;;;;;;14.00;3.30;;;;;;;;;;4996264;28;20192;-72
2023/10/14 13:42:46;;;;;;;10.23;2.50;;;;;;;;;;4996268;28;20157;-71
2023/10/14 13:45:12;;;;;;;8.73;2.63;;;;;;;;;;4996273;28;20790;-71
2023/10/14 13:47:41;;;;;;;9.00;2.67;;;;;;;;;;4994839;28;20226;-71
2023/10/14 13:50:10;;;;;;;8.50;3.13;;;;;;;;;;4995990;28;20196;-72
2023/10/14 13:52:36;;;;;;;9.07;2.90;;;;;;;;;;4978521;28;20200;-71
2023/10/14 13:55:04;;;;;;;9.87;2.80;;;;;;;;;;4996036;28;20185;-72
2023/10/14 13:57:32;;;;;;;6.17;2.77;;;;;;;;;;4978527;28;20330;-71
2023/10/14 13:59:58;;;;;;;9.80;2.80;;;;;;;;;;4978047;28;20227;-72
2023/10/14 14:02:24;;;;;;;7.73;2.40;;;;;;;;;;4978473;28;20248;-72
2023/10/14 14:04:50;;;;;;;8.67;2.97;;;;;;;;;;4978149;28;20185;-72
2023/10/14 14:07:16;;;;;;;4.77;2.03;;;;;;;;;;4996026;28;20176;-71
2023/10/14 14:09:42;;;;;;;11.93;3.90;;;;;;;;;;4995625;28;20207;-72
2023/10/14 14:12:08;;;;;;;9.53;4.77;;;;;;;;;;4996000;28;20180;-72
2023/10/14 14:14:36;;;;;;;6.77;2.50;;;;;;;;;;4978901;28;20650;-72
2023/10/14 14:17:06;;;;;;;9.27;3.47;;;;;;;;;;4995933;28;20592;-71
2023/10/14 14:19:32;;;;;;;9.37;3.10;;;;;;;;;;4978345;28;20302;-72
2023/10/14 14:21:59;;;;;;;6.47;2.30;;;;;;;;;;4978693;28;20192;-73
2023/10/14 14:24:25;;;;;;;11.23;3.27;;;;;;;;;;4995902;28;20204;-71
2023/10/14 14:26:52;;;;;;;8.33;2.43;;;;;;;;;;4995756;28;20200;-72
2023/10/14 14:29:18;;;;;;;7.17;2.23;;;;;;;;;;4977793;28;20262;-74
2023/10/14 14:31:44;;;;;;;9.67;2.93;;;;;;;;;;4977846;28;20268;-73
2023/10/14 14:34:12;;;;;;;13.30;4.07;;;;;;;;;;4978558;28;20201;-71
2023/10/14 14:36:38;;;;;;;12.67;4.23;;;;;;;;;;4977954;28;20227;-72
2023/10/14 14:39:04;;;;;;;11.00;2.80;;;;;;;;;;4995204;28;20271;-72
2023/10/14 14:41:31;;;;;;;13.87;9.47;;;;;;;;;;4977684;28;20283;-72
2023/10/14 14:43:57;;;;;;;8.50;2.87;;;;;;;;;;4977829;28;20180;-72
2023/10/14 14:46:23;;;;;;;9.03;3.23;;;;;;;;;;4995228;28;20211;-72
2023/10/14 14:48:49;;;;;;;4.40;1.43;;;;;;;;;;4995249;28;20200;-72
2023/10/14 14:51:16;;;;;;;8.80;2.60;;;;;;;;;;4977702;28;20212;-72
2023/10/14 14:53:42;;;;;;;8.53;5.10;;;;;;;;;;4977678;28;20185;-73
2023/10/14 14:56:09;;;;;;;9.70;8.13;;;;;;;;;;4978082;28;20535;-73
2023/10/14 14:58:36;;;;;;;5.07;2.10;;;;;;;;;;4995011;28;20234;-73
2023/10/14 15:01:02;;;;;;;5.50;1.97;;;;;;;;;;4977958;28;20246;-73
2023/10/14 15:03:29;;;;;;;7.60;4.50;;;;;;;;;;4995161;28;20602;-73
2023/10/14 15:05:55;;;;;;;6.23;2.50;;;;;;;;;;4995125;28;20200;-73
2023/10/14 15:08:23;;;;;;;4.87;2.07;;;;;;;;;;4994819;28;20665;-74
2023/10/14 15:10:50;;;;;;;10.63;3.00;;;;;;;;;;4994870;28;20181;-73
2023/10/14 15:13:17;;;;;;;5.77;1.93;;;;;;;;;;4977756;28;20208;-74